createdAt,value
2022-11-20T00:03:08.173Z,7.60
2022-11-20T00:08:10.342Z,7.50
2022-11-20T00:13:12.435Z,7.60
2022-11-20T00:23:17.018Z,7.60
2022-11-20T00:28:19.061Z,7.60
2022-11-20T00:33:21.082Z,7.60
2022-11-20T00:38:23.082Z,7.60
2022-11-20T00:43:25.709Z,7.60
2022-11-20T00:48:28.175Z,7.60
2022-11-20T00:58:35.841Z,7.50
2022-11-20T01:03:41.021Z,7.50
2022-11-20T01:08:44.463Z,7.50
2022-11-20T01:13:48.130Z,7.50
2022-11-20T01:18:52.365Z,7.50
2022-11-20T01:23:54.757Z,7.60
2022-11-20T01:28:57.810Z,7.50
2022-11-20T01:34:06.197Z,7.60
2022-11-20T01:39:29.170Z,7.50
2022-11-20T01:44:50.190Z,7.60
2022-11-20T01:50:07.454Z,7.60
2022-11-20T01:55:35.054Z,7.50
2022-11-20T02:00:37.226Z,7.60
2022-11-20T02:06:14.032Z,7.60
2022-11-20T02:11:16.120Z,7.60
2022-11-20T02:16:23.504Z,7.60
2022-11-20T02:21:37.485Z,7.60
2022-11-20T02:26:46.144Z,7.50
2022-11-20T02:31:48.477Z,7.60
2022-11-20T02:36:52.875Z,7.60
2022-11-20T02:41:56.749Z,7.60
2022-11-20T02:47:00.120Z,7.60
2022-11-20T02:52:02.183Z,7.60
2022-11-20T02:57:04.232Z,7.60
2022-11-20T03:02:06.331Z,7.60
2022-11-20T03:07:09.831Z,7.60
2022-11-20T03:17:14.377Z,7.70
2022-11-20T03:22:16.462Z,7.70
2022-11-20T03:27:18.609Z,7.70
2022-11-20T03:37:23.478Z,7.70
2022-11-20T03:42:44.505Z,7.70
2022-11-20T03:47:47.035Z,7.70
2022-11-20T03:57:51.610Z,7.80
2022-11-20T04:02:53.723Z,7.70
2022-11-20T04:07:55.734Z,7.70
2022-11-20T04:12:57.794Z,7.70
2022-11-20T04:17:59.840Z,7.70
2022-11-20T04:23:01.952Z,7.70
2022-11-20T04:28:04.180Z,7.70
2022-11-20T04:33:06.213Z,7.70
2022-11-20T04:38:08.419Z,7.70
2022-11-20T04:48:12.928Z,7.70
2022-11-20T04:53:15.091Z,7.80
2022-11-20T04:58:17.483Z,7.70
2022-11-20T05:03:19.588Z,7.80
2022-11-20T05:08:21.705Z,7.70
2022-11-20T05:13:23.790Z,7.70
2022-11-20T05:18:25.979Z,7.70
2022-11-20T05:23:29.871Z,7.80
2022-11-20T05:28:33.017Z,7.80
2022-11-20T05:33:36.779Z,7.80
2022-11-20T05:38:39.188Z,7.80
2022-11-20T05:43:43.558Z,7.80
2022-11-20T05:53:48.965Z,7.80
2022-11-20T05:58:51.248Z,7.90
2022-11-20T06:03:54.963Z,7.80
2022-11-20T06:08:59.766Z,7.80
2022-11-20T06:19:04.274Z,7.80
2022-11-20T06:24:06.717Z,7.80
2022-11-20T06:29:08.799Z,7.80
2022-11-20T06:34:10.929Z,7.80
2022-11-20T06:39:13.011Z,7.80
2022-11-20T06:44:15.109Z,7.80
2022-11-20T06:49:17.197Z,7.80
2022-11-20T06:54:19.255Z,7.90
2022-11-20T06:59:21.505Z,7.90
2022-11-20T07:04:23.844Z,7.90
2022-11-20T07:09:26.039Z,7.90
2022-11-20T07:14:28.199Z,7.80
2022-11-20T07:24:32.636Z,7.90
2022-11-20T07:34:37.112Z,8.00
2022-11-20T07:39:39.553Z,8.10
2022-11-20T07:59:48.769Z,8.30
2022-11-20T08:04:50.946Z,8.30
2022-11-20T08:14:57.577Z,8.30
2022-11-20T08:19:59.649Z,8.40
2022-11-20T08:30:05.459Z,8.40
2022-11-20T08:35:07.850Z,8.40
2022-11-20T08:40:14.761Z,8.40
2022-11-20T08:45:20.786Z,8.40
2022-11-20T08:50:22.828Z,8.40
2022-11-20T08:55:24.849Z,8.50
2022-11-20T09:00:26.956Z,8.50
2022-11-20T09:05:29.996Z,8.50
2022-11-20T09:10:33.037Z,8.50
2022-11-20T09:15:35.184Z,8.60
2022-11-20T09:20:37.801Z,8.60
2022-11-20T09:25:40.003Z,8.60
2022-11-20T09:41:07.487Z,8.80
2022-11-20T09:46:38.560Z,9.00
2022-11-20T09:52:07.048Z,9.00
2022-11-20T09:57:14.483Z,9.00
2022-11-20T10:02:19.227Z,9.00
2022-11-20T10:07:33.001Z,9.10
2022-11-20T10:12:58.530Z,9.20
2022-11-20T10:18:10.226Z,9.30
2022-11-20T10:23:50.962Z,9.30
2022-11-20T10:29:09.107Z,9.30
2022-11-20T10:34:40.463Z,9.30
2022-11-20T10:40:07.007Z,9.40
2022-11-20T10:45:23.104Z,9.40
2022-11-20T10:50:25.600Z,9.40
2022-11-20T10:55:49.141Z,9.60
2022-11-20T11:00:51.371Z,9.80
2022-11-20T11:06:17.007Z,9.90
2022-11-20T11:11:28.659Z,10.40
2022-11-20T11:16:30.734Z,10.60
2022-11-20T11:21:32.925Z,10.60
2022-11-20T11:26:34.968Z,10.80
2022-11-20T11:31:37.010Z,11.00
2022-11-20T11:36:39.479Z,11.40
2022-11-20T11:47:03.423Z,12.10
2022-11-20T11:52:17.182Z,12.40
2022-11-20T11:57:30.617Z,12.80
2022-11-20T12:02:45.241Z,13.10
2022-11-20T12:07:50.468Z,13.50
2022-11-20T12:13:09.111Z,13.80
2022-11-20T12:18:16.893Z,13.90
2022-11-20T12:23:40.437Z,13.90
2022-11-20T12:29:24.269Z,13.60
2022-11-20T12:34:51.372Z,13.40
2022-11-20T12:39:57.652Z,13.00
2022-11-20T12:45:33.744Z,12.80
2022-11-20T12:51:13.370Z,12.70
2022-11-20T12:56:32.880Z,12.60
2022-11-20T13:01:59.631Z,12.80
2022-11-20T13:07:09.179Z,12.70
2022-11-20T13:12:18.856Z,12.80
2022-11-20T13:17:29.770Z,12.90
2022-11-20T13:22:49.782Z,12.90
2022-11-20T13:27:52.179Z,13.00
2022-11-20T13:32:57.965Z,13.10
2022-11-20T13:38:06.515Z,13.20
2022-11-20T13:43:27.618Z,13.30
2022-11-20T13:48:42.195Z,13.30
2022-11-20T13:53:50.063Z,13.40
2022-11-20T13:59:14.744Z,13.50
2022-11-20T14:04:24.924Z,13.50
2022-11-20T14:09:33.438Z,13.50
2022-11-20T14:14:37.251Z,13.40
2022-11-20T14:19:42.254Z,13.30
2022-11-20T14:24:44.334Z,13.10
2022-11-20T14:29:49.989Z,13.00
2022-11-20T14:34:52.214Z,12.90
2022-11-20T14:39:56.830Z,12.70
2022-11-20T14:45:00.746Z,12.50
2022-11-20T14:50:07.381Z,12.50
2022-11-20T14:55:25.656Z,12.30
2022-11-20T15:00:29.218Z,12.30
2022-11-20T15:05:49.266Z,12.20
2022-11-20T15:10:52.660Z,12.20
2022-11-20T15:15:56.999Z,12.10
2022-11-20T15:21:04.157Z,12.10
2022-11-20T15:26:07.456Z,12.00
2022-11-20T15:31:18.087Z,12.00
2022-11-20T15:36:20.123Z,11.90
2022-11-20T15:41:22.136Z,11.90
2022-11-20T15:46:28.533Z,11.80
2022-11-20T15:51:34.219Z,11.80
2022-11-20T15:56:36.375Z,11.80
2022-11-20T16:01:38.710Z,11.70
2022-11-20T16:06:41.055Z,11.60
2022-11-20T16:11:43.156Z,11.50
2022-11-20T16:16:45.298Z,11.60
2022-11-20T16:21:47.486Z,11.50
2022-11-20T16:26:49.622Z,11.40
2022-11-20T16:31:51.800Z,11.40
2022-11-20T16:36:53.924Z,11.30
2022-11-20T16:41:56.108Z,11.30
2022-11-20T16:46:58.459Z,11.30
2022-11-20T16:52:00.584Z,11.30
2022-11-20T17:02:05.227Z,11.30
2022-11-20T17:07:08.288Z,11.30
2022-11-20T17:12:10.668Z,11.30
2022-11-20T17:17:12.808Z,11.30
2022-11-20T17:22:14.821Z,11.30
2022-11-20T17:27:17.052Z,11.30
2022-11-20T17:32:19.107Z,11.20
2022-11-20T17:37:21.167Z,11.20
2022-11-20T17:42:29.809Z,11.20
2022-11-20T17:47:32.032Z,11.20
2022-11-20T17:52:34.212Z,11.10
2022-11-20T17:57:56.582Z,11.10
2022-11-20T18:02:59.058Z,11.10
2022-11-20T18:08:01.190Z,11.10
2022-11-20T18:13:03.450Z,11.00
2022-11-20T18:18:05.634Z,11.00
2022-11-20T18:23:07.820Z,11.00
2022-11-20T18:28:09.951Z,11.10
2022-11-20T18:33:11.985Z,10.90
2022-11-20T18:38:14.132Z,10.80
2022-11-20T18:43:35.031Z,10.90
2022-11-20T18:53:45.862Z,10.80
2022-11-20T19:03:52.205Z,10.70
2022-11-20T19:08:54.250Z,10.70
2022-11-20T19:13:56.569Z,10.70
2022-11-20T19:19:06.640Z,10.60
2022-11-20T19:24:09.188Z,10.60
2022-11-20T19:29:15.807Z,10.50
2022-11-20T19:39:20.454Z,10.50
2022-11-20T19:44:22.584Z,10.40
2022-11-20T19:49:25.033Z,10.40
2022-11-20T19:54:27.547Z,10.30
2022-11-20T19:59:29.579Z,10.30
2022-11-20T20:04:31.761Z,10.30
2022-11-20T20:09:34.187Z,10.30
2022-11-20T20:14:36.271Z,10.30
2022-11-20T20:19:38.306Z,10.30
2022-11-20T20:24:40.343Z,10.30
2022-11-20T20:29:42.431Z,10.30
2022-11-20T20:34:44.522Z,10.20
2022-11-20T20:39:46.619Z,10.20
2022-11-20T20:45:07.030Z,10.10
2022-11-20T20:50:11.588Z,10.00
2022-11-20T20:55:14.358Z,9.90
2022-11-20T21:00:16.705Z,9.80
2022-11-20T21:05:18.876Z,9.80
2022-11-20T21:15:26.321Z,9.80
2022-11-20T21:20:47.196Z,9.70
2022-11-20T21:25:49.225Z,9.70
2022-11-20T21:30:51.344Z,9.70
2022-11-20T21:35:53.426Z,9.70
2022-11-20T21:40:58.536Z,9.80
2022-11-20T21:46:08.881Z,9.80
2022-11-20T21:51:22.481Z,9.80
2022-11-20T21:56:26.100Z,9.80
2022-11-20T22:01:30.611Z,9.90
2022-11-20T22:06:34.243Z,10.00
2022-11-20T22:26:44.432Z,10.20
2022-11-20T22:31:46.759Z,10.30
2022-11-20T22:36:48.891Z,10.30
2022-11-20T22:41:50.996Z,10.40
2022-11-20T22:46:53.032Z,10.40
2022-11-20T22:51:55.094Z,10.40
2022-11-20T23:01:59.779Z,10.40
2022-11-20T23:07:01.848Z,10.50
2022-11-20T23:12:04.105Z,10.50
2022-11-20T23:17:06.153Z,10.50
2022-11-20T23:27:10.557Z,10.50
2022-11-20T23:32:12.570Z,10.60
2022-11-20T23:37:14.594Z,10.60
2022-11-20T23:42:16.686Z,10.60
2022-11-20T23:47:18.724Z,10.60
2022-11-20T23:52:21.982Z,10.60
2022-11-20T23:57:24.009Z,10.60
